Time,TemperatureF,DewpointF,PressureIn,WindDirection,WindDirectionDegrees,WindSpeedMPH,WindSpeedGustMPH,Humidity,HourlyPrecipIn,Conditions,Clouds,dailyrainin,SoftwareType,DateUTC
2017-03-27 00:06:00,36.1,31.0,30.37,ESE,113,0.0,0.0,81,0.00,,,0.00,weatherlink.com 1.10,2017-03-27 04:06:00,
2017-03-27 00:21:00,36.1,31.0,30.37,NNW,327,0.0,0.0,81,0.00,,,0.00,weatherlink.com 1.10,2017-03-27 04:21:00,
2017-03-27 00:36:00,36.3,31.0,30.36,SSW,200,0.0,4.0,80,0.00,,,0.00,weatherlink.com 1.10,2017-03-27 04:36:00,
2017-03-27 00:52:00,36.1,31.0,30.35,SSW,195,0.0,3.0,81,0.00,,,0.00,weatherlink.com 1.10,2017-03-27 04:52:00,
2017-03-27 01:06:00,36.2,31.0,30.35,SW,230,0.0,3.0,80,0.00,,,0.00,weatherlink.com 1.10,2017-03-27 05:06:00,
2017-03-27 01:21:00,35.8,31.0,30.34,SW,229,0.0,0.0,82,0.00,,,0.00,weatherlink.com 1.10,2017-03-27 05:21:00,
2017-03-27 01:36:00,35.7,31.0,30.33,East,97,0.0,1.0,83,0.00,,,0.00,weatherlink.com 1.10,2017-03-27 05:36:00,
2017-03-27 01:51:00,35.6,31.0,30.33,East,98,0.0,1.0,84,0.00,,,0.00,weatherlink.com 1.10,2017-03-27 05:51:00,
2017-03-27 02:06:00,35.3,31.0,30.32,East,98,0.0,0.0,85,0.00,,,0.00,weatherlink.com 1.10,2017-03-27 06:06:00,
2017-03-27 02:21:00,35.2,31.0,30.32,East,97,0.0,1.0,86,0.00,,,0.00,weatherlink.com 1.10,2017-03-27 06:21:00,
2017-03-27 02:37:00,35.1,32.0,30.31,East,97,0.0,0.0,87,0.00,,,0.00,weatherlink.com 1.10,2017-03-27 06:37:00,
2017-03-27 02:52:00,35.0,32.0,30.31,North,1,0.0,2.0,88,0.00,,,0.00,weatherlink.com 1.10,2017-03-27 06:52:00,
2017-03-27 03:07:00,34.7,32.0,30.30,North,1,0.0,1.0,89,0.00,,,0.00,weatherlink.com 1.10,2017-03-27 07:07:00,
2017-03-27 03:22:00,34.4,32.0,30.29,NNE,27,0.0,1.0,90,0.00,,,0.00,weatherlink.com 1.10,2017-03-27 07:22:00,
2017-03-27 03:37:00,34.1,32.0,30.27,NW,306,0.0,2.0,92,0.00,,,0.00,weatherlink.com 1.10,2017-03-27 07:37:00,
2017-03-27 03:52:00,33.9,32.0,30.27,NW,312,0.0,0.0,93,0.00,,,0.00,weatherlink.com 1.10,2017-03-27 07:52:00,
2017-03-27 04:07:00,33.7,32.0,30.26,NNE,33,0.0,1.0,93,0.00,,,0.00,weatherlink.com 1.10,2017-03-27 08:07:00,
2017-03-27 04:22:00,33.6,32.0,30.26,North,8,0.0,1.0,94,0.00,,,0.00,weatherlink.com 1.10,2017-03-27 08:22:00,
2017-03-27 04:37:00,33.5,32.0,30.26,NE,41,0.0,1.0,94,0.01,,,0.01,weatherlink.com 1.10,2017-03-27 08:37:00,
2017-03-27 04:52:00,33.4,32.0,30.25,North,2,0.0,1.0,94,0.02,,,0.02,weatherlink.com 1.10,2017-03-27 08:52:00,
2017-03-27 05:07:00,33.4,32.0,30.24,North,357,0.0,1.0,95,0.02,,,0.02,weatherlink.com 1.10,2017-03-27 09:07:00,
2017-03-27 05:22:00,33.3,32.0,30.24,NNE,22,0.0,1.0,95,0.02,,,0.02,weatherlink.com 1.10,2017-03-27 09:22:00,
2017-03-27 05:37:00,33.3,32.0,30.23,NE,37,0.0,1.0,95,0.02,,,0.03,weatherlink.com 1.10,2017-03-27 09:37:00,
2017-03-27 05:52:00,33.3,32.0,30.23,NNE,18,0.0,1.0,95,0.01,,,0.03,weatherlink.com 1.10,2017-03-27 09:52:00,
2017-03-27 06:07:00,33.3,32.0,30.22,North,5,0.0,1.0,95,0.01,,,0.03,weatherlink.com 1.10,2017-03-27 10:07:00,
2017-03-27 06:22:00,33.2,32.0,30.21,NE,43,0.0,1.0,95,0.02,,,0.04,weatherlink.com 1.10,2017-03-27 10:22:00,
2017-03-27 06:37:00,33.3,32.0,30.21,NNE,15,0.0,1.0,95,0.02,,,0.05,weatherlink.com 1.10,2017-03-27 10:37:00,
2017-03-27 06:52:00,33.3,32.0,30.21,NE,53,0.0,2.0,95,0.02,,,0.05,weatherlink.com 1.10,2017-03-27 10:52:00,
2017-03-27 07:07:00,33.3,32.0,30.20,NNE,24,0.0,3.0,95,0.03,,,0.06,weatherlink.com 1.10,2017-03-27 11:07:00,
2017-03-27 07:22:00,33.4,32.0,30.20,NE,44,0.0,1.0,95,0.02,,,0.06,weatherlink.com 1.10,2017-03-27 11:22:00,
2017-03-27 07:37:00,33.4,32.0,30.19,NNE,32,1.0,2.0,95,0.01,,,0.06,weatherlink.com 1.10,2017-03-27 11:37:00,
2017-03-27 07:52:00,33.5,32.0,30.19,NNE,30,0.0,1.0,95,0.01,,,0.06,weatherlink.com 1.10,2017-03-27 11:52:00,
2017-03-27 08:07:00,33.5,32.0,30.18,NNE,32,1.0,2.0,95,0.01,,,0.07,weatherlink.com 1.10,2017-03-27 12:07:00,
2017-03-27 08:22:00,33.6,33.0,30.18,NE,37,0.0,1.0,96,0.01,,,0.07,weatherlink.com 1.10,2017-03-27 12:22:00,
2017-03-27 08:37:00,33.7,33.0,30.17,NE,50,1.0,3.0,96,0.02,,,0.08,weatherlink.com 1.10,2017-03-27 12:37:00,
2017-03-27 08:52:00,33.9,33.0,30.16,NNW,330,0.0,1.0,96,0.03,,,0.09,weatherlink.com 1.10,2017-03-27 12:52:00,
2017-03-27 09:07:00,33.9,33.0,30.16,NW,323,0.0,2.0,96,0.06,,,0.13,weatherlink.com 1.10,2017-03-27 13:07:00,
2017-03-27 09:22:00,34.0,33.0,30.16,North,4,0.0,1.0,96,0.12,,,0.19,weatherlink.com 1.10,2017-03-27 13:22:00,
2017-03-27 09:37:00,33.9,33.0,30.15,NE,45,1.0,2.0,96,0.19,,,0.27,weatherlink.com 1.10,2017-03-27 13:37:00,
2017-03-27 09:52:00,34.0,33.0,30.15,North,2,1.0,2.0,96,0.25,,,0.34,weatherlink.com 1.10,2017-03-27 13:52:00,
2017-03-27 10:08:00,34.3,33.0,30.15,NNE,15,0.0,1.0,96,0.26,,,0.39,weatherlink.com 1.10,2017-03-27 14:08:00,
2017-03-27 10:23:00,34.4,33.0,30.15,NE,38,0.0,4.0,96,0.22,,,0.41,weatherlink.com 1.10,2017-03-27 14:23:00,
2017-03-27 10:38:00,34.6,34.0,30.15,NE,55,1.0,2.0,96,0.17,,,0.44,weatherlink.com 1.10,2017-03-27 14:38:00,
2017-03-27 10:53:00,35.0,34.0,30.14,NNW,333,1.0,5.0,96,0.11,,,0.45,weatherlink.com 1.10,2017-03-27 14:53:00,